sensor_id;sensor_type;location;lat;lon;timestamp;P1;durP1;ratioP1;P2;durP2;ratioP2
57752;SDS011;43583;53.132;6.574;2023-02-12T00:01:45;12.32;;;4.35;;
57752;SDS011;43583;53.132;6.574;2023-02-12T00:04:11;10.00;;;3.60;;
57752;SDS011;43583;53.132;6.574;2023-02-12T00:06:37;14.93;;;4.20;;
57752;SDS011;43583;53.132;6.574;2023-02-12T00:09:03;14.80;;;5.10;;
57752;SDS011;43583;53.132;6.574;2023-02-12T00:11:29;10.88;;;4.97;;
57752;SDS011;43583;53.132;6.574;2023-02-12T00:13:55;11.35;;;5.20;;
57752;SDS011;43583;53.132;6.574;2023-02-12T00:16:23;12.35;;;5.40;;
57752;SDS011;43583;53.132;6.574;2023-02-12T00:18:54;14.05;;;4.50;;
57752;SDS011;43583;53.132;6.574;2023-02-12T00:21:21;12.57;;;5.30;;
57752;SDS011;43583;53.132;6.574;2023-02-12T00:23:48;14.00;;;5.45;;
57752;SDS011;43583;53.132;6.574;2023-02-12T00:26:14;13.57;;;6.13;;
57752;SDS011;43583;53.132;6.574;2023-02-12T00:28:41;14.45;;;5.53;;
57752;SDS011;43583;53.132;6.574;2023-02-12T00:31:08;18.83;;;5.47;;
57752;SDS011;43583;53.132;6.574;2023-02-12T00:33:36;15.98;;;5.78;;
57752;SDS011;43583;53.132;6.574;2023-02-12T00:36:02;12.95;;;5.78;;
57752;SDS011;43583;53.132;6.574;2023-02-12T00:38:28;13.57;;;5.35;;
57752;SDS011;43583;53.132;6.574;2023-02-12T00:40:53;14.07;;;6.47;;
57752;SDS011;43583;53.132;6.574;2023-02-12T00:43:19;11.70;;;5.80;;
57752;SDS011;43583;53.132;6.574;2023-02-12T00:45:45;14.20;;;6.10;;
57752;SDS011;43583;53.132;6.574;2023-02-12T00:48:11;16.48;;;6.10;;
57752;SDS011;43583;53.132;6.574;2023-02-12T00:50:37;18.05;;;6.32;;
57752;SDS011;43583;53.132;6.574;2023-02-12T00:53:05;16.83;;;5.80;;
57752;SDS011;43583;53.132;6.574;2023-02-12T00:55:31;16.77;;;6.25;;
57752;SDS011;43583;53.132;6.574;2023-02-12T00:57:57;12.32;;;5.72;;
57752;SDS011;43583;53.132;6.574;2023-02-12T01:00:22;15.95;;;5.80;;
57752;SDS011;43583;53.132;6.574;2023-02-12T01:02:48;16.67;;;6.07;;
57752;SDS011;43583;53.132;6.574;2023-02-12T01:05:14;12.63;;;6.78;;
57752;SDS011;43583;53.132;6.574;2023-02-12T01:07:39;19.00;;;6.47;;
57752;SDS011;43583;53.132;6.574;2023-02-12T01:10:05;14.43;;;6.47;;
57752;SDS011;43583;53.132;6.574;2023-02-12T01:12:32;15.48;;;6.97;;
57752;SDS011;43583;53.132;6.574;2023-02-12T01:14:58;11.68;;;6.15;;
57752;SDS011;43583;53.132;6.574;2023-02-12T01:17:24;15.77;;;6.63;;
57752;SDS011;43583;53.132;6.574;2023-02-12T01:19:50;19.95;;;6.63;;
57752;SDS011;43583;53.132;6.574;2023-02-12T01:22:15;18.33;;;6.53;;
57752;SDS011;43583;53.132;6.574;2023-02-12T01:24:41;14.60;;;6.30;;
57752;SDS011;43583;53.132;6.574;2023-02-12T01:27:07;22.83;;;6.97;;
57752;SDS011;43583;53.132;6.574;2023-02-12T01:29:32;18.95;;;7.25;;
57752;SDS011;43583;53.132;6.574;2023-02-12T01:31:58;18.90;;;6.63;;
57752;SDS011;43583;53.132;6.574;2023-02-12T01:34:23;16.08;;;6.57;;
57752;SDS011;43583;53.132;6.574;2023-02-12T01:36:49;16.92;;;6.50;;
57752;SDS011;43583;53.132;6.574;2023-02-12T01:39:14;15.50;;;6.07;;
57752;SDS011;43583;53.132;6.574;2023-02-12T01:41:41;20.23;;;7.60;;
57752;SDS011;43583;53.132;6.574;2023-02-12T01:44:12;20.55;;;6.72;;
57752;SDS011;43583;53.132;6.574;2023-02-12T01:46:46;21.95;;;6.88;;
57752;SDS011;43583;53.132;6.574;2023-02-12T01:52:16;18.38;;;7.30;;
57752;SDS011;43583;53.132;6.574;2023-02-12T01:54:47;17.10;;;6.47;;
57752;SDS011;43583;53.132;6.574;2023-02-12T01:57:15;25.02;;;8.25;;
57752;SDS011;43583;53.132;6.574;2023-02-12T01:59:42;21.13;;;7.80;;
57752;SDS011;43583;53.132;6.574;2023-02-12T02:02:11;27.35;;;6.90;;
57752;SDS011;43583;53.132;6.574;2023-02-12T02:04:46;20.20;;;6.93;;
57752;SDS011;43583;53.132;6.574;2023-02-12T02:07:14;23.02;;;7.45;;
57752;SDS011;43583;53.132;6.574;2023-02-12T02:09:40;33.05;;;7.90;;
57752;SDS011;43583;53.132;6.574;2023-02-12T02:12:07;17.73;;;7.32;;
57752;SDS011;43583;53.132;6.574;2023-02-12T02:14:53;26.47;;;8.80;;
57752;SDS011;43583;53.132;6.574;2023-02-12T02:34:38;28.75;;;9.82;;
57752;SDS011;43583;53.132;6.574;2023-02-12T02:39:54;24.35;;;9.70;;
57752;SDS011;43583;53.132;6.574;2023-02-12T02:45:08;23.75;;;8.50;;
57752;SDS011;43583;53.132;6.574;2023-02-12T02:47:40;25.70;;;9.93;;
57752;SDS011;43583;53.132;6.574;2023-02-12T02:50:12;26.88;;;9.02;;
57752;SDS011;43583;53.132;6.574;2023-02-12T02:52:48;18.35;;;7.55;;
57752;SDS011;43583;53.132;6.574;2023-02-12T02:55:25;23.80;;;8.98;;
57752;SDS011;43583;53.132;6.574;2023-02-12T02:57:56;24.63;;;8.77;;
57752;SDS011;43583;53.132;6.574;2023-02-12T03:00:27;24.98;;;8.18;;
57752;SDS011;43583;53.132;6.574;2023-02-12T03:03:27;23.52;;;8.20;;
57752;SDS011;43583;53.132;6.574;2023-02-12T03:06:35;24.73;;;9.75;;
57752;SDS011;43583;53.132;6.574;2023-02-12T03:09:14;28.05;;;8.95;;
57752;SDS011;43583;53.132;6.574;2023-02-12T03:11:46;27.52;;;10.10;;
57752;SDS011;43583;53.132;6.574;2023-02-12T03:14:19;30.70;;;10.18;;
57752;SDS011;43583;53.132;6.574;2023-02-12T03:17:04;26.15;;;8.45;;
57752;SDS011;43583;53.132;6.574;2023-02-12T03:19:36;30.13;;;9.82;;
57752;SDS011;43583;53.132;6.574;2023-02-12T03:22:07;25.95;;;9.80;;
57752;SDS011;43583;53.132;6.574;2023-02-12T03:24:43;31.33;;;9.02;;
57752;SDS011;43583;53.132;6.574;2023-02-12T03:27:19;33.60;;;9.50;;
57752;SDS011;43583;53.132;6.574;2023-02-12T03:30:00;38.40;;;10.52;;
57752;SDS011;43583;53.132;6.574;2023-02-12T03:32:43;31.45;;;10.07;;
57752;SDS011;43583;53.132;6.574;2023-02-12T03:35:24;23.67;;;9.38;;
57752;SDS011;43583;53.132;6.574;2023-02-12T03:38:01;20.20;;;8.75;;
57752;SDS011;43583;53.132;6.574;2023-02-12T03:40:35;26.35;;;9.32;;
57752;SDS011;43583;53.132;6.574;2023-02-12T03:43:14;32.95;;;9.90;;
57752;SDS011;43583;53.132;6.574;2023-02-12T03:45:52;34.28;;;10.38;;
57752;SDS011;43583;53.132;6.574;2023-02-12T03:48:25;27.33;;;9.50;;
57752;SDS011;43583;53.132;6.574;2023-02-12T03:51:35;33.47;;;9.77;;
57752;SDS011;43583;53.132;6.574;2023-02-12T03:54:07;23.70;;;8.80;;
57752;SDS011;43583;53.132;6.574;2023-02-12T03:56:39;26.17;;;8.70;;
57752;SDS011;43583;53.132;6.574;2023-02-12T03:59:18;23.80;;;8.27;;
57752;SDS011;43583;53.132;6.574;2023-02-12T04:01:45;24.23;;;8.35;;
57752;SDS011;43583;53.132;6.574;2023-02-12T04:04:13;29.98;;;8.90;;
57752;SDS011;43583;53.132;6.574;2023-02-12T04:06:39;19.52;;;7.70;;
57752;SDS011;43583;53.132;6.574;2023-02-12T04:09:06;22.02;;;8.00;;
57752;SDS011;43583;53.132;6.574;2023-02-12T04:14:31;23.33;;;8.73;;
57752;SDS011;43583;53.132;6.574;2023-02-12T04:26:04;17.20;;;5.55;;
57752;SDS011;43583;53.132;6.574;2023-02-12T04:28:51;16.45;;;5.60;;
57752;SDS011;43583;53.132;6.574;2023-02-12T04:37:17;12.75;;;5.43;;
57752;SDS011;43583;53.132;6.574;2023-02-12T04:39:57;15.75;;;4.93;;
57752;SDS011;43583;53.132;6.574;2023-02-12T04:42:26;13.02;;;5.13;;
57752;SDS011;43583;53.132;6.574;2023-02-12T04:44:52;15.20;;;5.18;;
57752;SDS011;43583;53.132;6.574;2023-02-12T04:47:18;12.65;;;4.97;;
57752;SDS011;43583;53.132;6.574;2023-02-12T04:49:43;13.52;;;3.88;;
57752;SDS011;43583;53.132;6.574;2023-02-12T04:52:09;14.23;;;4.28;;
57752;SDS011;43583;53.132;6.574;2023-02-12T04:54:35;10.32;;;4.63;;
57752;SDS011;43583;53.132;6.574;2023-02-12T04:57:00;14.52;;;4.82;;
57752;SDS011;43583;53.132;6.574;2023-02-12T04:59:26;11.95;;;4.35;;
57752;SDS011;43583;53.132;6.574;2023-02-12T05:01:51;17.02;;;5.13;;
57752;SDS011;43583;53.132;6.574;2023-02-12T05:04:17;11.48;;;3.63;;
57752;SDS011;43583;53.132;6.574;2023-02-12T05:06:44;12.93;;;4.40;;
57752;SDS011;43583;53.132;6.574;2023-02-12T05:09:17;15.45;;;3.85;;
57752;SDS011;43583;53.132;6.574;2023-02-12T05:11:43;11.82;;;4.45;;
57752;SDS011;43583;53.132;6.574;2023-02-12T05:14:09;10.25;;;4.45;;
57752;SDS011;43583;53.132;6.574;2023-02-12T05:16:36;9.25;;;4.15;;
57752;SDS011;43583;53.132;6.574;2023-02-12T05:19:01;11.50;;;4.28;;
57752;SDS011;43583;53.132;6.574;2023-02-12T05:21:27;12.15;;;4.40;;
57752;SDS011;43583;53.132;6.574;2023-02-12T05:23:52;10.60;;;4.40;;
57752;SDS011;43583;53.132;6.574;2023-02-12T05:26:19;15.75;;;4.57;;
57752;SDS011;43583;53.132;6.574;2023-02-12T05:28:45;9.70;;;3.67;;
57752;SDS011;43583;53.132;6.574;2023-02-12T05:31:13;13.10;;;4.10;;
57752;SDS011;43583;53.132;6.574;2023-02-12T05:33:41;16.10;;;5.30;;
57752;SDS011;43583;53.132;6.574;2023-02-12T05:36:09;19.45;;;4.82;;
57752;SDS011;43583;53.132;6.574;2023-02-12T05:38:37;13.52;;;4.30;;
57752;SDS011;43583;53.132;6.574;2023-02-12T05:41:04;12.90;;;4.20;;
57752;SDS011;43583;53.132;6.574;2023-02-12T05:43:32;12.50;;;3.65;;
57752;SDS011;43583;53.132;6.574;2023-02-12T05:45:58;13.13;;;4.05;;
57752;SDS011;43583;53.132;6.574;2023-02-12T05:48:25;15.82;;;4.50;;
57752;SDS011;43583;53.132;6.574;2023-02-12T05:50:52;10.88;;;4.68;;
57752;SDS011;43583;53.132;6.574;2023-02-12T05:53:17;14.82;;;4.55;;
57752;SDS011;43583;53.132;6.574;2023-02-12T05:55:43;25.05;;;5.68;;
57752;SDS011;43583;53.132;6.574;2023-02-12T05:58:08;13.18;;;5.43;;
57752;SDS011;43583;53.132;6.574;2023-02-12T06:00:34;15.68;;;5.15;;
57752;SDS011;43583;53.132;6.574;2023-02-12T06:03:00;20.50;;;6.18;;
57752;SDS011;43583;53.132;6.574;2023-02-12T06:05:25;12.40;;;5.85;;
57752;SDS011;43583;53.132;6.574;2023-02-12T06:07:51;18.45;;;6.97;;
57752;SDS011;43583;53.132;6.574;2023-02-12T06:10:17;14.82;;;6.38;;
57752;SDS011;43583;53.132;6.574;2023-02-12T06:12:42;20.02;;;6.93;;
57752;SDS011;43583;53.132;6.574;2023-02-12T06:15:08;19.00;;;6.55;;
57752;SDS011;43583;53.132;6.574;2023-02-12T06:17:34;16.73;;;6.72;;
57752;SDS011;43583;53.132;6.574;2023-02-12T06:20:00;18.52;;;8.00;;
57752;SDS011;43583;53.132;6.574;2023-02-12T06:22:26;18.00;;;6.70;;
57752;SDS011;43583;53.132;6.574;2023-02-12T06:24:52;22.77;;;7.60;;
57752;SDS011;43583;53.132;6.574;2023-02-12T06:27:17;22.02;;;7.70;;
57752;SDS011;43583;53.132;6.574;2023-02-12T06:29:43;21.13;;;6.88;;
57752;SDS011;43583;53.132;6.574;2023-02-12T06:32:09;19.65;;;7.18;;
57752;SDS011;43583;53.132;6.574;2023-02-12T06:34:37;18.08;;;8.18;;
57752;SDS011;43583;53.132;6.574;2023-02-12T06:37:03;22.90;;;8.77;;
57752;SDS011;43583;53.132;6.574;2023-02-12T06:39:29;22.52;;;7.68;;
57752;SDS011;43583;53.132;6.574;2023-02-12T06:41:54;25.00;;;8.43;;
57752;SDS011;43583;53.132;6.574;2023-02-12T06:44:20;27.88;;;9.43;;
57752;SDS011;43583;53.132;6.574;2023-02-12T06:46:45;21.98;;;8.40;;
57752;SDS011;43583;53.132;6.574;2023-02-12T06:49:11;22.08;;;9.02;;
57752;SDS011;43583;53.132;6.574;2023-02-12T06:51:38;22.05;;;8.63;;
57752;SDS011;43583;53.132;6.574;2023-02-12T06:54:09;23.58;;;8.70;;
57752;SDS011;43583;53.132;6.574;2023-02-12T06:56:39;25.05;;;9.65;;
57752;SDS011;43583;53.132;6.574;2023-02-12T06:59:05;25.60;;;9.02;;
57752;SDS011;43583;53.132;6.574;2023-02-12T07:01:30;24.05;;;8.88;;
57752;SDS011;43583;53.132;6.574;2023-02-12T07:03:57;27.70;;;8.70;;
57752;SDS011;43583;53.132;6.574;2023-02-12T07:06:24;21.77;;;7.65;;
57752;SDS011;43583;53.132;6.574;2023-02-12T07:08:51;20.05;;;7.53;;
57752;SDS011;43583;53.132;6.574;2023-02-12T07:11:16;22.10;;;7.18;;
57752;SDS011;43583;53.132;6.574;2023-02-12T07:13:42;18.80;;;6.43;;
57752;SDS011;43583;53.132;6.574;2023-02-12T07:16:10;20.52;;;7.20;;
57752;SDS011;43583;53.132;6.574;2023-02-12T07:18:37;20.40;;;7.30;;
57752;SDS011;43583;53.132;6.574;2023-02-12T07:21:04;21.27;;;9.25;;
57752;SDS011;43583;53.132;6.574;2023-02-12T07:23:31;19.58;;;7.57;;
57752;SDS011;43583;53.132;6.574;2023-02-12T07:25:59;18.33;;;7.20;;
57752;SDS011;43583;53.132;6.574;2023-02-12T07:28:26;26.10;;;8.13;;
57752;SDS011;43583;53.132;6.574;2023-02-12T07:30:52;19.65;;;7.95;;
57752;SDS011;43583;53.132;6.574;2023-02-12T07:33:18;28.02;;;8.00;;
57752;SDS011;43583;53.132;6.574;2023-02-12T07:35:44;23.38;;;9.38;;
57752;SDS011;43583;53.132;6.574;2023-02-12T07:38:10;26.50;;;9.43;;
57752;SDS011;43583;53.132;6.574;2023-02-12T07:40:36;25.30;;;8.63;;
57752;SDS011;43583;53.132;6.574;2023-02-12T07:43:02;26.77;;;9.15;;
57752;SDS011;43583;53.132;6.574;2023-02-12T07:45:28;21.48;;;9.93;;
57752;SDS011;43583;53.132;6.574;2023-02-12T07:47:54;20.52;;;9.07;;
57752;SDS011;43583;53.132;6.574;2023-02-12T07:50:19;20.38;;;8.77;;
57752;SDS011;43583;53.132;6.574;2023-02-12T07:52:47;23.83;;;8.95;;
57752;SDS011;43583;53.132;6.574;2023-02-12T07:55:13;23.30;;;8.90;;
57752;SDS011;43583;53.132;6.574;2023-02-12T07:57:39;20.88;;;9.07;;
57752;SDS011;43583;53.132;6.574;2023-02-12T08:00:05;19.92;;;8.73;;
57752;SDS011;43583;53.132;6.574;2023-02-12T08:02:31;21.98;;;9.05;;
57752;SDS011;43583;53.132;6.574;2023-02-12T08:04:57;22.35;;;8.82;;
57752;SDS011;43583;53.132;6.574;2023-02-12T08:07:23;17.38;;;7.60;;
57752;SDS011;43583;53.132;6.574;2023-02-12T08:09:48;20.17;;;8.10;;
57752;SDS011;43583;53.132;6.574;2023-02-12T08:12:15;20.60;;;8.20;;
57752;SDS011;43583;53.132;6.574;2023-02-12T08:14:41;19.20;;;8.05;;
57752;SDS011;43583;53.132;6.574;2023-02-12T08:17:07;22.48;;;9.00;;
57752;SDS011;43583;53.132;6.574;2023-02-12T08:19:34;20.55;;;7.72;;
57752;SDS011;43583;53.132;6.574;2023-02-12T08:22:00;22.52;;;7.93;;
57752;SDS011;43583;53.132;6.574;2023-02-12T08:24:27;20.48;;;9.05;;
57752;SDS011;43583;53.132;6.574;2023-02-12T08:26:53;19.65;;;7.57;;
57752;SDS011;43583;53.132;6.574;2023-02-12T08:29:23;21.10;;;8.63;;
57752;SDS011;43583;53.132;6.574;2023-02-12T08:31:55;19.83;;;7.32;;
57752;SDS011;43583;53.132;6.574;2023-02-12T08:34:23;22.15;;;7.82;;
57752;SDS011;43583;53.132;6.574;2023-02-12T08:36:53;22.75;;;8.50;;
57752;SDS011;43583;53.132;6.574;2023-02-12T08:39:20;24.52;;;8.63;;
57752;SDS011;43583;53.132;6.574;2023-02-12T08:41:47;28.85;;;9.75;;
57752;SDS011;43583;53.132;6.574;2023-02-12T08:44:12;27.77;;;8.90;;
57752;SDS011;43583;53.132;6.574;2023-02-12T08:46:40;26.88;;;9.13;;
57752;SDS011;43583;53.132;6.574;2023-02-12T08:49:11;30.42;;;11.00;;
57752;SDS011;43583;53.132;6.574;2023-02-12T08:51:39;31.80;;;11.25;;
57752;SDS011;43583;53.132;6.574;2023-02-12T08:54:07;34.67;;;10.75;;
57752;SDS011;43583;53.132;6.574;2023-02-12T08:56:35;28.95;;;10.63;;
57752;SDS011;43583;53.132;6.574;2023-02-12T08:59:02;32.13;;;10.70;;
57752;SDS011;43583;53.132;6.574;2023-02-12T09:01:29;28.77;;;10.63;;
57752;SDS011;43583;53.132;6.574;2023-02-12T09:03:57;34.67;;;10.23;;
57752;SDS011;43583;53.132;6.574;2023-02-12T09:06:23;28.63;;;9.75;;
57752;SDS011;43583;53.132;6.574;2023-02-12T09:08:50;29.33;;;10.98;;
57752;SDS011;43583;53.132;6.574;2023-02-12T09:11:17;29.70;;;10.07;;
57752;SDS011;43583;53.132;6.574;2023-02-12T09:13:50;24.97;;;9.70;;
57752;SDS011;43583;53.132;6.574;2023-02-12T09:16:16;29.88;;;11.55;;
57752;SDS011;43583;53.132;6.574;2023-02-12T09:18:42;26.13;;;11.10;;
57752;SDS011;43583;53.132;6.574;2023-02-12T09:21:11;26.63;;;11.02;;
57752;SDS011;43583;53.132;6.574;2023-02-12T09:23:40;26.25;;;10.10;;
57752;SDS011;43583;53.132;6.574;2023-02-12T09:26:07;23.73;;;10.10;;
57752;SDS011;43583;53.132;6.574;2023-02-12T09:28:37;26.45;;;9.75;;
57752;SDS011;43583;53.132;6.574;2023-02-12T09:31:04;29.77;;;10.50;;
57752;SDS011;43583;53.132;6.574;2023-02-12T09:33:35;26.17;;;10.68;;
57752;SDS011;43583;53.132;6.574;2023-02-12T09:36:01;21.77;;;9.80;;
57752;SDS011;43583;53.132;6.574;2023-02-12T09:38:32;20.42;;;9.93;;
57752;SDS011;43583;53.132;6.574;2023-02-12T09:44:04;22.60;;;10.30;;
57752;SDS011;43583;53.132;6.574;2023-02-12T09:46:44;27.65;;;11.18;;
57752;SDS011;43583;53.132;6.574;2023-02-12T09:49:22;22.67;;;11.40;;
57752;SDS011;43583;53.132;6.574;2023-02-12T09:51:57;24.15;;;10.57;;
57752;SDS011;43583;53.132;6.574;2023-02-12T09:54:25;21.98;;;10.65;;
57752;SDS011;43583;53.132;6.574;2023-02-12T09:56:58;26.33;;;11.98;;
57752;SDS011;43583;53.132;6.574;2023-02-12T09:59:32;23.05;;;10.88;;
57752;SDS011;43583;53.132;6.574;2023-02-12T10:02:02;20.90;;;9.88;;
57752;SDS011;43583;53.132;6.574;2023-02-12T10:04:35;21.65;;;9.73;;
57752;SDS011;43583;53.132;6.574;2023-02-12T10:07:25;19.33;;;9.40;;
57752;SDS011;43583;53.132;6.574;2023-02-12T10:09:53;21.17;;;9.18;;
57752;SDS011;43583;53.132;6.574;2023-02-12T10:12:37;22.13;;;10.57;;
57752;SDS011;43583;53.132;6.574;2023-02-12T10:15:13;21.77;;;9.43;;
57752;SDS011;43583;53.132;6.574;2023-02-12T10:20:46;19.17;;;9.45;;
57752;SDS011;43583;53.132;6.574;2023-02-12T10:26:39;14.90;;;8.88;;
57752;SDS011;43583;53.132;6.574;2023-02-12T10:29:10;19.58;;;8.70;;
57752;SDS011;43583;53.132;6.574;2023-02-12T10:31:49;17.23;;;8.93;;
57752;SDS011;43583;53.132;6.574;2023-02-12T10:34:20;19.05;;;10.02;;
57752;SDS011;43583;53.132;6.574;2023-02-12T10:36:49;23.48;;;9.88;;
57752;SDS011;43583;53.132;6.574;2023-02-12T10:39:23;17.63;;;8.68;;
57752;SDS011;43583;53.132;6.574;2023-02-12T10:44:40;18.85;;;8.27;;
57752;SDS011;43583;53.132;6.574;2023-02-12T10:47:10;17.98;;;9.18;;
57752;SDS011;43583;53.132;6.574;2023-02-12T10:49:43;15.18;;;9.43;;
57752;SDS011;43583;53.132;6.574;2023-02-12T10:54:49;15.85;;;9.35;;
57752;SDS011;43583;53.132;6.574;2023-02-12T10:57:19;14.75;;;8.32;;
57752;SDS011;43583;53.132;6.574;2023-02-12T10:59:45;18.20;;;9.40;;
57752;SDS011;43583;53.132;6.574;2023-02-12T11:02:23;17.13;;;8.55;;
57752;SDS011;43583;53.132;6.574;2023-02-12T11:04:52;15.75;;;8.07;;
57752;SDS011;43583;53.132;6.574;2023-02-12T11:07:18;13.85;;;7.65;;
57752;SDS011;43583;53.132;6.574;2023-02-12T11:09:45;15.93;;;8.07;;
57752;SDS011;43583;53.132;6.574;2023-02-12T11:15:13;12.98;;;7.07;;
57752;SDS011;43583;53.132;6.574;2023-02-12T11:17:45;17.30;;;7.80;;
57752;SDS011;43583;53.132;6.574;2023-02-12T11:20:26;14.32;;;7.88;;
57752;SDS011;43583;53.132;6.574;2023-02-12T11:22:57;12.73;;;6.47;;
57752;SDS011;43583;53.132;6.574;2023-02-12T11:25:29;11.30;;;6.15;;
57752;SDS011;43583;53.132;6.574;2023-02-12T11:28:16;17.48;;;7.95;;
57752;SDS011;43583;53.132;6.574;2023-02-12T11:30:50;12.85;;;6.70;;
57752;SDS011;43583;53.132;6.574;2023-02-12T11:33:33;11.27;;;5.65;;
57752;SDS011;43583;53.132;6.574;2023-02-12T11:36:02;12.32;;;6.25;;
57752;SDS011;43583;53.132;6.574;2023-02-12T11:38:32;13.10;;;6.68;;
57752;SDS011;43583;53.132;6.574;2023-02-12T11:41:06;15.15;;;6.75;;
57752;SDS011;43583;53.132;6.574;2023-02-12T11:43:58;11.27;;;5.63;;
57752;SDS011;43583;53.132;6.574;2023-02-12T11:46:25;11.43;;;6.25;;
57752;SDS011;43583;53.132;6.574;2023-02-12T11:48:52;10.52;;;6.07;;
57752;SDS011;43583;53.132;6.574;2023-02-12T11:51:26;12.52;;;5.75;;
57752;SDS011;43583;53.132;6.574;2023-02-12T11:53:53;10.10;;;4.88;;
57752;SDS011;43583;53.132;6.574;2023-02-12T11:56:22;11.70;;;5.80;;
57752;SDS011;43583;53.132;6.574;2023-02-12T11:58:48;10.52;;;5.88;;
57752;SDS011;43583;53.132;6.574;2023-02-12T12:04:02;8.50;;;5.03;;
57752;SDS011;43583;53.132;6.574;2023-02-12T12:06:35;9.95;;;5.57;;
57752;SDS011;43583;53.132;6.574;2023-02-12T12:09:19;11.57;;;5.65;;
57752;SDS011;43583;53.132;6.574;2023-02-12T12:11:50;13.82;;;5.25;;
57752;SDS011;43583;53.132;6.574;2023-02-12T12:18:10;6.30;;;3.65;;
57752;SDS011;43583;53.132;6.574;2023-02-12T12:21:27;6.85;;;3.78;;
57752;SDS011;43583;53.132;6.574;2023-02-12T12:24:05;5.75;;;3.17;;
57752;SDS011;43583;53.132;6.574;2023-02-12T12:26:33;8.02;;;3.85;;
57752;SDS011;43583;53.132;6.574;2023-02-12T12:29:00;9.35;;;3.55;;
57752;SDS011;43583;53.132;6.574;2023-02-12T12:31:28;11.50;;;3.58;;
57752;SDS011;43583;53.132;6.574;2023-02-12T12:36:47;7.82;;;2.80;;
57752;SDS011;43583;53.132;6.574;2023-02-12T12:42:24;5.85;;;2.97;;
57752;SDS011;43583;53.132;6.574;2023-02-12T12:47:48;6.90;;;3.78;;
57752;SDS011;43583;53.132;6.574;2023-02-12T13:06:48;1.00;;;0.20;;
57752;SDS011;43583;53.132;6.574;2023-02-12T13:09:32;1.90;;;0.30;;
57752;SDS011;43583;53.132;6.574;2023-02-12T13:14:52;3.30;;;0.68;;
57752;SDS011;43583;53.132;6.574;2023-02-12T13:17:25;1.30;;;0.55;;
57752;SDS011;43583;53.132;6.574;2023-02-12T13:23:11;2.83;;;0.43;;
57752;SDS011;43583;53.132;6.574;2023-02-12T13:28:36;6.53;;;1.30;;
57752;SDS011;43583;53.132;6.574;2023-02-12T13:31:09;3.88;;;1.00;;
57752;SDS011;43583;53.132;6.574;2023-02-12T13:33:40;3.67;;;0.82;;
57752;SDS011;43583;53.132;6.574;2023-02-12T13:36:09;3.38;;;0.82;;
57752;SDS011;43583;53.132;6.574;2023-02-12T13:38:39;3.83;;;1.73;;
57752;SDS011;43583;53.132;6.574;2023-02-12T13:41:10;3.25;;;0.73;;
57752;SDS011;43583;53.132;6.574;2023-02-12T13:46:13;0.60;;;0.22;;
57752;SDS011;43583;53.132;6.574;2023-02-12T13:51:46;1.45;;;0.30;;
57752;SDS011;43583;53.132;6.574;2023-02-12T13:54:21;2.25;;;0.30;;
57752;SDS011;43583;53.132;6.574;2023-02-12T13:56:50;2.28;;;0.68;;
57752;SDS011;43583;53.132;6.574;2023-02-12T14:02:04;0.80;;;0.20;;
57752;SDS011;43583;53.132;6.574;2023-02-12T14:04:31;0.93;;;0.20;;
57752;SDS011;43583;53.132;6.574;2023-02-12T14:12:05;1.80;;;0.60;;
57752;SDS011;43583;53.132;6.574;2023-02-12T14:14:46;0.93;;;0.30;;
57752;SDS011;43583;53.132;6.574;2023-02-12T14:20:05;1.10;;;0.40;;
57752;SDS011;43583;53.132;6.574;2023-02-12T14:24:56;1.33;;;0.40;;
57752;SDS011;43583;53.132;6.574;2023-02-12T14:37:56;2.42;;;0.93;;
57752;SDS011;43583;53.132;6.574;2023-02-12T14:40:48;2.47;;;1.15;;
57752;SDS011;43583;53.132;6.574;2023-02-12T14:45:50;2.55;;;1.17;;
57752;SDS011;43583;53.132;6.574;2023-02-12T14:51:03;2.05;;;0.70;;
57752;SDS011;43583;53.132;6.574;2023-02-12T14:53:33;1.55;;;0.50;;
57752;SDS011;43583;53.132;6.574;2023-02-12T14:56:01;2.15;;;0.65;;
57752;SDS011;43583;53.132;6.574;2023-02-12T14:58:28;1.60;;;0.50;;
57752;SDS011;43583;53.132;6.574;2023-02-12T15:00:56;1.45;;;0.77;;
57752;SDS011;43583;53.132;6.574;2023-02-12T15:03:26;1.45;;;0.90;;
57752;SDS011;43583;53.132;6.574;2023-02-12T15:11:19;3.80;;;1.42;;
57752;SDS011;43583;53.132;6.574;2023-02-12T15:21:58;2.40;;;1.65;;
57752;SDS011;43583;53.132;6.574;2023-02-12T15:24:24;2.10;;;1.00;;
57752;SDS011;43583;53.132;6.574;2023-02-12T15:26:51;3.17;;;1.13;;
57752;SDS011;43583;53.132;6.574;2023-02-12T15:29:21;3.35;;;1.02;;
57752;SDS011;43583;53.132;6.574;2023-02-12T15:31:54;2.75;;;0.60;;
57752;SDS011;43583;53.132;6.574;2023-02-12T15:34:23;4.15;;;0.90;;
57752;SDS011;43583;53.132;6.574;2023-02-12T15:36:51;3.03;;;0.65;;
57752;SDS011;43583;53.132;6.574;2023-02-12T15:39:21;3.20;;;0.70;;
57752;SDS011;43583;53.132;6.574;2023-02-12T15:41:49;2.15;;;0.77;;
57752;SDS011;43583;53.132;6.574;2023-02-12T15:44:25;1.40;;;0.50;;
57752;SDS011;43583;53.132;6.574;2023-02-12T15:47:00;2.60;;;0.93;;
57752;SDS011;43583;53.132;6.574;2023-02-12T15:49:36;2.15;;;1.00;;
57752;SDS011;43583;53.132;6.574;2023-02-12T15:52:04;2.13;;;0.63;;
57752;SDS011;43583;53.132;6.574;2023-02-12T15:54:33;3.40;;;0.75;;
57752;SDS011;43583;53.132;6.574;2023-02-12T15:56:59;2.85;;;0.90;;
57752;SDS011;43583;53.132;6.574;2023-02-12T15:59:32;1.70;;;0.55;;
57752;SDS011;43583;53.132;6.574;2023-02-12T16:02:00;1.65;;;0.50;;
57752;SDS011;43583;53.132;6.574;2023-02-12T16:04:31;2.33;;;0.80;;
57752;SDS011;43583;53.132;6.574;2023-02-12T16:07:01;4.13;;;0.90;;
57752;SDS011;43583;53.132;6.574;2023-02-12T16:09:28;2.75;;;0.90;;
57752;SDS011;43583;53.132;6.574;2023-02-12T16:11:56;1.92;;;0.85;;
57752;SDS011;43583;53.132;6.574;2023-02-12T16:14:47;1.25;;;0.30;;
57752;SDS011;43583;53.132;6.574;2023-02-12T16:20:02;2.58;;;0.50;;
57752;SDS011;43583;53.132;6.574;2023-02-12T16:22:46;1.65;;;0.50;;
57752;SDS011;43583;53.132;6.574;2023-02-12T16:25:15;3.03;;;1.20;;
57752;SDS011;43583;53.132;6.574;2023-02-12T16:28:00;4.03;;;1.15;;
57752;SDS011;43583;53.132;6.574;2023-02-12T16:30:34;3.17;;;1.77;;
57752;SDS011;43583;53.132;6.574;2023-02-12T16:36:05;5.78;;;3.25;;
57752;SDS011;43583;53.132;6.574;2023-02-12T16:43:38;9.88;;;6.13;;
57752;SDS011;43583;53.132;6.574;2023-02-12T16:46:05;6.18;;;2.78;;
57752;SDS011;43583;53.132;6.574;2023-02-12T16:48:42;4.45;;;2.30;;
57752;SDS011;43583;53.132;6.574;2023-02-12T16:51:21;2.80;;;1.17;;
57752;SDS011;43583;53.132;6.574;2023-02-12T16:53:49;2.67;;;1.10;;
57752;SDS011;43583;53.132;6.574;2023-02-12T16:56:18;3.55;;;1.35;;
57752;SDS011;43583;53.132;6.574;2023-02-12T16:58:46;2.53;;;1.50;;
57752;SDS011;43583;53.132;6.574;2023-02-12T17:01:17;2.03;;;1.08;;
57752;SDS011;43583;53.132;6.574;2023-02-12T17:03:45;2.05;;;0.93;;
57752;SDS011;43583;53.132;6.574;2023-02-12T17:06:14;2.22;;;0.93;;
57752;SDS011;43583;53.132;6.574;2023-02-12T17:08:44;3.50;;;1.67;;
57752;SDS011;43583;53.132;6.574;2023-02-12T17:11:10;2.47;;;1.00;;
57752;SDS011;43583;53.132;6.574;2023-02-12T17:13:36;4.40;;;1.73;;
57752;SDS011;43583;53.132;6.574;2023-02-12T17:16:01;3.05;;;1.52;;
57752;SDS011;43583;53.132;6.574;2023-02-12T17:18:28;1.75;;;0.95;;
57752;SDS011;43583;53.132;6.574;2023-02-12T17:21:00;2.50;;;1.50;;
57752;SDS011;43583;53.132;6.574;2023-02-12T17:23:32;3.25;;;1.52;;
57752;SDS011;43583;53.132;6.574;2023-02-12T17:25:58;2.58;;;1.58;;
57752;SDS011;43583;53.132;6.574;2023-02-12T17:28:24;3.05;;;1.52;;
57752;SDS011;43583;53.132;6.574;2023-02-12T17:30:50;4.18;;;1.80;;
57752;SDS011;43583;53.132;6.574;2023-02-12T17:33:17;2.55;;;1.27;;